Terminal Aerodrome Forecast
Issued by NWS

Current Version | Previous Version | Text Only | Print | Product List | Glossary On
Versions: 1 2 3 4 5 6 7 8 9 10 11 12 13 14
000
FTUS42 TJSJ 181100
TAFJPS
TAF
TJPS 181133Z 1812/1912 00000KT P6SM SKC
     FM181450 15011KT P6SM VCTS SCT040CB
     FM182300 06005KT P6SM VCTS SCT040CB
      AMD NOT SKED TIL 190300=

USA.gov is the U.S. government's official web portal to all federal, state and local government web resources and services.